createdAt,value
2019-04-16T00:00:53.098Z,49.23
2019-04-16T00:03:24.033Z,45.87
2019-04-16T00:05:58.924Z,44.97
2019-04-16T00:08:33.750Z,49.33
2019-04-16T00:11:24.436Z,47.63
2019-04-16T00:14:06.162Z,48.37
2019-04-16T00:16:37.134Z,47.00
2019-04-16T00:19:08.052Z,50.23
2019-04-16T00:21:56.481Z,53.90
2019-04-16T00:24:29.038Z,48.97
2019-04-16T00:27:00.105Z,51.67
2019-04-16T00:29:33.051Z,51.60
2019-04-16T00:32:09.170Z,45.53
2019-04-16T00:34:38.873Z,50.83
2019-04-16T00:37:09.753Z,51.40
2019-04-16T00:39:41.438Z,55.33
2019-04-16T00:42:12.324Z,48.90
2019-04-16T00:44:44.125Z,45.33
2019-04-16T00:47:15.050Z,52.47
2019-04-16T00:49:45.964Z,51.27
2019-04-16T00:52:16.846Z,52.27
2019-04-16T00:54:48.552Z,49.47
2019-04-16T00:57:19.435Z,48.83
2019-04-16T00:59:55.071Z,49.77
2019-04-16T01:02:22.970Z,52.50
2019-04-16T01:04:53.886Z,52.23
2019-04-16T01:07:24.772Z,54.77
2019-04-16T01:09:55.697Z,66.00
2019-04-16T01:12:26.594Z,55.00
2019-04-16T01:15:00.578Z,56.00
2019-04-16T01:17:30.107Z,64.47
2019-04-16T01:20:01.024Z,61.03
2019-04-16T01:22:31.921Z,72.97
2019-04-16T01:25:02.834Z,65.67
2019-04-16T01:27:35.368Z,64.13
2019-04-16T01:30:08.892Z,53.97
2019-04-16T01:32:42.723Z,49.93
2019-04-16T01:35:18.659Z,43.90
2019-04-16T01:38:06.316Z,50.73
2019-04-16T01:40:41.965Z,47.07
2019-04-16T01:43:12.849Z,60.27
2019-04-16T01:45:43.877Z,66.80
2019-04-16T01:48:14.769Z,60.67
2019-04-16T01:50:55.778Z,72.43
2019-04-16T01:53:26.669Z,63.77
2019-04-16T01:55:57.736Z,58.90
2019-04-16T01:58:33.553Z,61.43
2019-04-16T02:01:02.102Z,61.93
2019-04-16T02:03:33.001Z,60.57
2019-04-16T02:06:03.916Z,57.27
2019-04-16T02:08:34.810Z,51.07
2019-04-16T02:11:09.584Z,54.77
2019-04-16T02:13:38.316Z,55.83
2019-04-16T02:16:09.349Z,58.50
2019-04-16T02:18:40.232Z,56.43
2019-04-16T02:21:11.390Z,55.87
2019-04-16T02:23:42.390Z,55.30
2019-04-16T02:26:13.308Z,56.90
2019-04-16T02:28:44.203Z,58.03
2019-04-16T02:31:16.287Z,55.93
2019-04-16T02:33:47.405Z,59.90
2019-04-16T02:36:18.336Z,56.40
2019-04-16T02:38:53.430Z,52.67
2019-04-16T02:41:24.515Z,53.53
2019-04-16T02:43:55.244Z,57.30
2019-04-16T02:46:32.095Z,51.83
2019-04-16T02:49:00.598Z,47.40
2019-04-16T02:51:39.861Z,64.47
2019-04-16T02:54:10.387Z,51.07
2019-04-16T02:56:42.944Z,50.93
2019-04-16T02:59:15.488Z,50.40
2019-04-16T03:01:49.426Z,49.80
2019-04-16T03:04:27.033Z,49.40
2019-04-16T03:07:02.763Z,73.13
2019-04-16T03:09:31.006Z,68.27
2019-04-16T03:12:01.937Z,65.90
2019-04-16T03:14:32.835Z,69.37
2019-04-16T03:17:12.119Z,66.13
2019-04-16T03:19:44.653Z,63.50
2019-04-16T03:22:15.574Z,63.43
2019-04-16T03:24:46.463Z,59.37
2019-04-16T03:27:21.939Z,51.27
2019-04-16T03:29:49.970Z,54.43
2019-04-16T03:33:09.031Z,59.00
2019-04-16T03:35:15.464Z,56.90
2019-04-16T03:37:46.552Z,58.00
2019-04-16T03:40:18.951Z,64.27
2019-04-16T03:42:51.046Z,65.40
2019-04-16T03:45:22.003Z,64.77
2019-04-16T03:47:53.911Z,59.70
2019-04-16T03:50:24.845Z,54.17
2019-04-16T03:52:55.784Z,55.33
2019-04-16T03:55:26.683Z,49.30
2019-04-16T03:57:57.570Z,48.37
2019-04-16T04:00:29.310Z,54.83
2019-04-16T04:03:00.204Z,49.50
2019-04-16T04:05:34.973Z,67.70
2019-04-16T04:08:04.910Z,41.93
2019-04-16T04:10:37.096Z,50.67
2019-04-16T04:13:08.408Z,45.30
2019-04-16T04:15:39.330Z,58.30
2019-04-16T04:18:11.705Z,65.67
2019-04-16T04:20:42.956Z,54.70
2019-04-16T04:23:13.848Z,58.27
2019-04-16T04:25:44.782Z,52.07
2019-04-16T04:28:18.561Z,46.37
2019-04-16T04:30:48.883Z,51.03
2019-04-16T04:33:40.692Z,36.07
2019-04-16T04:36:10.222Z,36.00
2019-04-16T04:38:41.273Z,26.50
2019-04-16T04:41:12.115Z,27.00
2019-04-16T04:43:43.780Z,30.30
2019-04-16T04:46:15.609Z,33.87
2019-04-16T04:48:46.671Z,28.43
2019-04-16T04:51:18.664Z,24.80
2019-04-16T04:53:50.366Z,28.00
2019-04-16T04:56:22.309Z,27.57
2019-04-16T04:58:53.165Z,27.00
2019-04-16T05:01:27.852Z,23.13
2019-04-16T05:04:03.207Z,21.67
2019-04-16T05:06:39.696Z,21.33
2019-04-16T05:09:10.591Z,20.67
2019-04-16T05:11:41.524Z,18.13
2019-04-16T05:14:12.431Z,19.07
2019-04-16T05:16:43.428Z,25.70
2019-04-16T05:19:15.620Z,25.68
2019-04-16T05:21:50.045Z,20.97
2019-04-16T05:24:20.102Z,19.67
2019-04-16T05:26:51.032Z,21.42
2019-04-16T05:29:21.928Z,28.55
2019-04-16T05:31:54.437Z,33.28
2019-04-16T05:34:25.460Z,21.60
2019-04-16T05:36:57.352Z,27.52
2019-04-16T05:39:28.604Z,22.85
2019-04-16T05:41:59.647Z,27.37
2019-04-16T05:44:34.026Z,23.32
2019-04-16T05:47:05.017Z,25.62
2019-04-16T05:49:35.922Z,28.65
2019-04-16T05:52:07.877Z,23.77
2019-04-16T05:54:41.507Z,29.10
2019-04-16T05:57:17.634Z,20.48
2019-04-16T05:59:48.588Z,30.35
2019-04-16T06:02:21.165Z,25.97
2019-04-16T06:04:55.639Z,24.77
2019-04-16T06:07:25.808Z,26.60
2019-04-16T06:09:56.654Z,32.63
2019-04-16T06:12:32.396Z,18.65
2019-04-16T06:15:06.418Z,19.75
2019-04-16T06:17:55.386Z,13.08
2019-04-16T06:20:27.928Z,8.53
2019-04-16T06:23:07.130Z,8.03
2019-04-16T06:25:45.626Z,8.40
2019-04-16T06:28:33.395Z,7.75
2019-04-16T06:31:09.916Z,6.35
2019-04-16T06:33:40.176Z,7.00
2019-04-16T06:36:15.569Z,8.05
2019-04-16T06:38:49.052Z,8.78
2019-04-16T06:41:41.896Z,8.55
2019-04-16T06:44:13.891Z,11.88
2019-04-16T06:46:49.133Z,12.07
2019-04-16T06:49:22.394Z,5.47
2019-04-16T06:51:59.680Z,12.68
2019-04-16T06:54:36.194Z,9.55
2019-04-16T06:57:14.974Z,8.43
2019-04-16T07:00:02.257Z,8.93
2019-04-16T07:03:01.738Z,13.20
2019-04-16T07:05:40.883Z,6.67
2019-04-16T07:08:19.956Z,20.68
2019-04-16T07:10:58.628Z,13.58
2019-04-16T07:13:29.519Z,7.25
2019-04-16T07:16:00.427Z,7.30
2019-04-16T07:18:31.246Z,6.12
2019-04-16T07:21:02.165Z,11.35
2019-04-16T07:23:33.074Z,11.40
2019-04-16T07:26:04.511Z,7.80
2019-04-16T07:28:40.234Z,12.82
2019-04-16T07:31:32.933Z,9.80
2019-04-16T07:34:04.813Z,11.22
2019-04-16T07:36:37.376Z,8.60
2019-04-16T07:39:13.550Z,14.30
2019-04-16T07:41:50.825Z,8.23
2019-04-16T07:44:26.310Z,7.58
2019-04-16T07:46:59.683Z,9.50
2019-04-16T07:49:41.152Z,7.58
2019-04-16T07:52:13.697Z,8.05
2019-04-16T07:55:01.416Z,12.75
2019-04-16T07:57:32.602Z,7.95
2019-04-16T08:00:08.183Z,7.72
2019-04-16T08:02:36.465Z,7.90
2019-04-16T08:05:09.172Z,10.95
2019-04-16T08:07:40.378Z,9.13
2019-04-16T08:10:11.766Z,10.32
2019-04-16T08:12:45.199Z,7.53
2019-04-16T08:15:16.088Z,8.35
2019-04-16T08:17:46.999Z,6.75
2019-04-16T08:20:21.026Z,11.93
2019-04-16T08:22:52.233Z,18.23
2019-04-16T08:25:33.523Z,6.90
2019-04-16T08:28:06.913Z,7.72
2019-04-16T08:30:39.483Z,8.63
2019-04-16T08:33:11.130Z,10.40
2019-04-16T08:35:41.869Z,10.98
2019-04-16T08:38:12.796Z,6.87
2019-04-16T08:40:46.325Z,9.20
2019-04-16T08:43:17.247Z,5.40
2019-04-16T08:45:48.135Z,7.20
2019-04-16T08:48:19.828Z,6.90
2019-04-16T08:50:50.776Z,8.58
2019-04-16T08:53:21.702Z,6.35
2019-04-16T08:55:52.584Z,8.90
2019-04-16T08:58:25.049Z,6.72
2019-04-16T09:00:56.014Z,7.62
2019-04-16T09:03:30.090Z,6.35
2019-04-16T09:05:59.522Z,8.23
2019-04-16T09:08:44.338Z,7.67
2019-04-16T09:11:23.197Z,6.35
2019-04-16T09:13:50.466Z,7.57
2019-04-16T09:16:21.408Z,5.45
2019-04-16T09:18:53.986Z,9.47
2019-04-16T09:21:27.785Z,6.40
2019-04-16T09:24:17.522Z,6.25
2019-04-16T09:26:59.057Z,4.03
2019-04-16T09:29:41.372Z,8.48
2019-04-16T09:32:30.060Z,5.90
2019-04-16T09:35:19.893Z,9.30
2019-04-16T09:37:58.118Z,7.75
2019-04-16T09:40:33.591Z,4.80
2019-04-16T09:43:16.488Z,6.97
2019-04-16T09:45:39.635Z,6.23
2019-04-16T09:48:10.510Z,7.43
2019-04-16T09:50:46.358Z,9.25
2019-04-16T09:53:14.783Z,9.90
2019-04-16T09:55:47.657Z,7.27
2019-04-16T09:58:25.702Z,6.57
2019-04-16T10:00:59.138Z,8.00
2019-04-16T10:03:39.466Z,6.17
2019-04-16T10:06:10.448Z,4.08
2019-04-16T10:08:44.562Z,7.17
2019-04-16T10:11:13.946Z,14.70
2019-04-16T10:13:44.868Z,7.33
2019-04-16T10:16:17.442Z,7.17
2019-04-16T10:18:48.391Z,6.20
2019-04-16T10:21:20.342Z,5.50
2019-04-16T10:24:01.862Z,9.57
2019-04-16T10:26:32.839Z,3.37
2019-04-16T10:29:06.079Z,12.15
2019-04-16T10:31:38.104Z,5.70
2019-04-16T10:34:08.997Z,7.97
2019-04-16T10:36:39.943Z,13.95
2019-04-16T10:39:15.432Z,17.73
2019-04-16T10:41:56.414Z,20.20
2019-04-16T10:44:43.271Z,8.63
2019-04-16T10:47:35.603Z,6.45
2019-04-16T10:50:26.101Z,11.05
2019-04-16T10:53:04.826Z,6.58
2019-04-16T10:55:40.067Z,9.80
2019-04-16T10:58:15.635Z,5.65
2019-04-16T11:00:48.145Z,6.58
2019-04-16T11:03:34.782Z,16.95
2019-04-16T11:06:08.010Z,11.73
2019-04-16T11:08:39.196Z,5.63
2019-04-16T11:11:10.321Z,6.03
2019-04-16T11:13:59.149Z,3.20
2019-04-16T11:16:18.722Z,4.05
2019-04-16T11:18:50.631Z,5.55
2019-04-16T11:21:21.517Z,5.80
2019-04-16T11:23:52.430Z,5.03
2019-04-16T11:26:23.318Z,4.53
2019-04-16T11:28:54.243Z,6.83
2019-04-16T11:31:26.495Z,4.60
2019-04-16T11:33:58.304Z,4.40
2019-04-16T11:36:30.977Z,4.00
2019-04-16T11:39:01.821Z,5.47
2019-04-16T11:41:32.716Z,7.35
2019-04-16T11:44:15.099Z,3.80
2019-04-16T11:46:36.372Z,5.87
2019-04-16T11:49:08.265Z,4.40
2019-04-16T11:51:39.996Z,5.77
2019-04-16T11:54:11.937Z,3.23
2019-04-16T11:56:44.895Z,4.22
2019-04-16T11:59:15.860Z,3.97
2019-04-16T12:01:57.464Z,6.43
2019-04-16T12:04:33.507Z,6.07
2019-04-16T12:07:06.420Z,6.67
2019-04-16T12:09:39.104Z,8.87
2019-04-16T12:12:11.602Z,11.33
2019-04-16T12:14:53.429Z,5.37
2019-04-16T12:17:31.924Z,7.77
2019-04-16T12:20:11.213Z,8.63
2019-04-16T12:22:46.769Z,5.10
2019-04-16T12:25:22.358Z,7.37
2019-04-16T12:28:12.482Z,5.60
2019-04-16T12:30:52.989Z,5.83
2019-04-16T12:33:34.714Z,6.97
2019-04-16T12:36:12.798Z,7.77
2019-04-16T12:38:59.103Z,9.80
2019-04-16T12:41:31.718Z,7.35
2019-04-16T12:44:24.282Z,6.87
2019-04-16T12:47:11.019Z,7.63
2019-04-16T12:49:58.811Z,12.03
2019-04-16T12:52:38.181Z,7.43
2019-04-16T12:55:31.341Z,5.63
2019-04-16T12:58:07.188Z,5.15
2019-04-16T13:00:42.650Z,17.93
2019-04-16T13:03:32.155Z,14.73
2019-04-16T13:06:16.744Z,9.10
2019-04-16T13:09:06.477Z,10.35
2019-04-16T13:11:48.121Z,6.30
2019-04-16T13:14:32.945Z,4.87
2019-04-16T13:17:18.769Z,10.90
2019-04-16T13:20:07.275Z,3.47
2019-04-16T13:22:42.543Z,11.33
2019-04-16T13:25:21.656Z,5.03
2019-04-16T13:27:53.369Z,7.47
2019-04-16T13:30:24.302Z,10.03
2019-04-16T13:32:55.214Z,8.67
2019-04-16T13:35:26.157Z,10.00
2019-04-16T13:37:57.070Z,9.20
2019-04-16T13:40:28.915Z,3.57
2019-04-16T13:43:01.672Z,7.40
2019-04-16T13:45:37.163Z,17.83
2019-04-16T13:48:16.578Z,6.43
2019-04-16T13:50:44.057Z,7.13
2019-04-16T13:53:22.857Z,8.63
2019-04-16T13:56:11.343Z,13.43
2019-04-16T13:58:43.910Z,11.60
2019-04-16T14:01:19.476Z,8.23
2019-04-16T14:03:50.388Z,6.43
2019-04-16T14:06:21.330Z,7.80
2019-04-16T14:08:52.255Z,16.40
2019-04-16T14:11:24.208Z,10.28
2019-04-16T14:13:55.128Z,6.65
2019-04-16T14:16:26.058Z,8.10
2019-04-16T14:18:56.968Z,3.20
2019-04-16T14:21:27.898Z,6.10
2019-04-16T14:23:59.108Z,5.23
2019-04-16T14:26:30.938Z,9.70
2019-04-16T14:29:05.561Z,8.93
2019-04-16T14:31:34.530Z,7.17
2019-04-16T14:34:10.012Z,4.07
2019-04-16T14:36:40.960Z,3.77
2019-04-16T14:39:16.575Z,10.80
2019-04-16T14:41:50.300Z,11.10
2019-04-16T14:44:23.267Z,11.27
2019-04-16T14:46:54.272Z,6.90
2019-04-16T14:49:25.176Z,4.70
2019-04-16T14:51:58.146Z,12.40
2019-04-16T14:54:40.294Z,9.43
2019-04-16T14:57:12.968Z,10.67
2019-04-16T15:00:03.635Z,5.67
2019-04-16T15:02:48.290Z,8.07
2019-04-16T15:05:38.910Z,18.23
2019-04-16T15:08:14.274Z,12.40
2019-04-16T15:10:53.474Z,12.57
2019-04-16T15:13:32.888Z,26.50
2019-04-16T15:16:13.465Z,8.60
2019-04-16T15:18:45.377Z,25.43
2019-04-16T15:21:20.665Z,16.70
2019-04-16T15:23:53.246Z,26.87
2019-04-16T15:26:37.663Z,10.27
2019-04-16T15:29:13.818Z,6.27
2019-04-16T15:31:52.346Z,14.60
2019-04-16T15:34:24.931Z,9.80
2019-04-16T15:36:57.488Z,8.83
2019-04-16T15:39:35.364Z,6.13
2019-04-16T15:42:16.362Z,18.70
2019-04-16T15:44:49.027Z,8.50
2019-04-16T15:47:27.299Z,7.10
2019-04-16T15:50:05.849Z,14.27
2019-04-16T15:52:50.650Z,17.17
2019-04-16T15:55:36.963Z,15.60
2019-04-16T15:58:12.714Z,9.83
2019-04-16T16:00:46.142Z,9.17
2019-04-16T16:03:27.684Z,22.63
2019-04-16T16:06:04.126Z,8.57
2019-04-16T16:08:51.758Z,19.73
2019-04-16T16:11:24.357Z,19.73
2019-04-16T16:13:56.655Z,24.97
2019-04-16T16:16:41.110Z,18.47
2019-04-16T16:19:01.433Z,19.30
2019-04-16T16:21:33.214Z,13.70
2019-04-16T16:24:07.590Z,31.00
2019-04-16T16:26:36.775Z,11.87
2019-04-16T16:29:07.696Z,29.73
2019-04-16T16:31:39.538Z,44.17
2019-04-16T16:34:10.462Z,18.53
2019-04-16T16:36:41.455Z,35.93
2019-04-16T16:39:12.407Z,33.23
2019-04-16T16:41:46.323Z,44.03
2019-04-16T16:44:15.977Z,33.90
2019-04-16T16:46:58.939Z,12.53
2019-04-16T16:49:30.072Z,8.97
2019-04-16T16:52:19.821Z,37.90
2019-04-16T16:54:52.390Z,24.83
2019-04-16T16:57:25.940Z,10.47
2019-04-16T17:00:13.847Z,59.33
2019-04-16T17:02:47.274Z,31.00
2019-04-16T17:05:19.840Z,13.50
2019-04-16T17:07:53.509Z,39.53
2019-04-16T17:10:23.410Z,50.03
2019-04-16T17:12:54.376Z,51.33
2019-04-16T17:15:25.299Z,27.97
2019-04-16T17:17:57.158Z,42.67
2019-04-16T17:20:28.153Z,52.80
2019-04-16T17:22:59.174Z,30.30
2019-04-16T17:25:36.561Z,81.27
2019-04-16T17:28:02.769Z,60.27
2019-04-16T17:30:33.758Z,62.73
2019-04-16T17:33:05.668Z,64.07
2019-04-16T17:35:36.583Z,57.13
2019-04-16T17:38:07.600Z,58.77
2019-04-16T17:40:51.111Z,41.47
2019-04-16T17:43:29.201Z,110.43
2019-04-16T17:46:01.773Z,144.13
2019-04-16T17:48:34.394Z,96.20
2019-04-16T17:51:10.060Z,151.87
2019-04-16T17:53:45.643Z,158.07
2019-04-16T17:56:34.526Z,119.83
2019-04-16T17:59:08.785Z,125.20
2019-04-16T18:01:53.412Z,135.50
2019-04-16T18:04:33.075Z,50.63
2019-04-16T18:07:08.646Z,42.87
2019-04-16T18:10:01.528Z,124.50
2019-04-16T18:12:55.142Z,120.43
2019-04-16T18:15:44.423Z,73.03
2019-04-16T18:18:17.377Z,117.03
2019-04-16T18:20:59.218Z,83.73
2019-04-16T18:23:36.859Z,67.80
2019-04-16T18:26:21.727Z,80.90
2019-04-16T18:29:06.547Z,76.43
2019-04-16T18:31:41.869Z,106.80
2019-04-16T18:34:20.453Z,61.80
2019-04-16T18:37:09.173Z,65.17
2019-04-16T18:39:41.744Z,69.80
2019-04-16T18:42:26.524Z,58.80
2019-04-16T18:45:05.043Z,47.37
2019-04-16T18:47:37.683Z,48.77
2019-04-16T18:50:10.653Z,51.53
2019-04-16T18:52:42.475Z,65.78
2019-04-16T18:55:13.397Z,71.75
2019-04-16T18:57:44.359Z,57.53
2019-04-16T19:00:28.751Z,79.30
2019-04-16T19:02:59.967Z,159.03
2019-04-16T19:05:30.904Z,147.80
2019-04-16T19:08:02.763Z,71.73
2019-04-16T19:10:33.671Z,52.93
2019-04-16T19:13:09.236Z,43.83
2019-04-16T19:15:37.254Z,44.10
2019-04-16T19:18:19.227Z,129.43
2019-04-16T19:20:41.079Z,89.50
2019-04-16T19:23:12.312Z,111.47
2019-04-16T19:25:43.337Z,92.70
2019-04-16T19:28:14.300Z,89.73
2019-04-16T19:30:45.245Z,85.97
2019-04-16T19:33:16.328Z,57.37
2019-04-16T19:35:50.982Z,74.27
2019-04-16T19:38:21.059Z,70.37
2019-04-16T19:40:52.039Z,60.40
2019-04-16T19:43:23.032Z,66.87
2019-04-16T19:45:54.015Z,101.13
2019-04-16T19:48:35.222Z,183.00
2019-04-16T19:50:57.690Z,105.30
2019-04-16T19:53:30.346Z,73.63
2019-04-16T19:56:01.263Z,71.10
2019-04-16T19:58:32.226Z,73.47
2019-04-16T20:01:04.627Z,54.00
2019-04-16T20:03:35.523Z,38.77
2019-04-16T20:06:08.273Z,40.77
2019-04-16T20:08:39.982Z,46.30
2019-04-16T20:11:12.215Z,49.67
2019-04-16T20:13:43.142Z,49.30
2019-04-16T20:16:14.100Z,47.57
2019-04-16T20:18:51.123Z,44.00
2019-04-16T20:21:17.671Z,39.90
2019-04-16T20:23:48.605Z,46.57
2019-04-16T20:26:20.497Z,37.87
2019-04-16T20:28:51.501Z,36.10
2019-04-16T20:31:22.451Z,32.63
2019-04-16T20:33:53.415Z,42.77
2019-04-16T20:36:24.368Z,48.10
2019-04-16T20:38:55.528Z,46.57
2019-04-16T20:41:27.525Z,37.57
2019-04-16T20:43:59.289Z,42.60
2019-04-16T20:46:30.239Z,45.73
2019-04-16T20:49:09.021Z,46.63
2019-04-16T20:51:33.771Z,45.40
2019-04-16T20:54:05.153Z,44.00
2019-04-16T20:56:40.399Z,43.43
2019-04-16T20:59:09.553Z,44.40
2019-04-16T21:01:42.264Z,42.93
2019-04-16T21:04:13.225Z,44.33
2019-04-16T21:06:44.164Z,45.13
2019-04-16T21:09:15.119Z,42.20
2019-04-16T21:11:46.889Z,38.20
2019-04-16T21:14:18.967Z,37.87
2019-04-16T21:16:50.404Z,36.43
2019-04-16T21:19:23.687Z,33.73
2019-04-16T21:21:56.496Z,32.57
2019-04-16T21:24:27.336Z,35.77
2019-04-16T21:26:59.122Z,39.40
2019-04-16T21:29:34.427Z,43.97
2019-04-16T21:32:09.825Z,48.47
2019-04-16T21:34:40.279Z,50.50
2019-04-16T21:37:30.389Z,49.30
2019-04-16T21:40:03.251Z,52.03
2019-04-16T21:42:34.996Z,43.93
2019-04-16T21:45:07.625Z,44.70
2019-04-16T21:47:38.543Z,39.37
2019-04-16T21:50:09.435Z,34.50
2019-04-16T21:52:40.369Z,32.40
2019-04-16T21:55:11.363Z,34.67
2019-04-16T21:57:45.906Z,36.30
2019-04-16T22:00:17.873Z,38.20
2019-04-16T22:02:51.755Z,30.37
2019-04-16T22:05:22.668Z,35.50
2019-04-16T22:07:53.773Z,34.23
2019-04-16T22:10:26.259Z,36.63
2019-04-16T22:12:58.082Z,36.23
2019-04-16T22:15:28.978Z,37.30
2019-04-16T22:17:59.908Z,35.07
2019-04-16T22:20:31.824Z,28.43
2019-04-16T22:23:03.435Z,33.53
2019-04-16T22:25:34.324Z,35.67
2019-04-16T22:28:11.387Z,36.33
2019-04-16T22:30:38.876Z,33.00
2019-04-16T22:33:09.896Z,31.43
2019-04-16T22:35:40.794Z,31.83
2019-04-16T22:38:14.310Z,31.93
2019-04-16T22:40:51.648Z,32.67
2019-04-16T22:43:23.894Z,29.97
2019-04-16T22:45:56.494Z,32.30
2019-04-16T22:48:27.415Z,36.10
2019-04-16T22:51:09.661Z,40.70
2019-04-16T22:53:36.695Z,40.07
2019-04-16T22:56:07.586Z,32.87
2019-04-16T22:58:43.686Z,33.27
2019-04-16T23:01:14.884Z,29.50
2019-04-16T23:03:49.717Z,32.20
2019-04-16T23:06:19.790Z,30.83
2019-04-16T23:08:50.720Z,27.97
2019-04-16T23:11:23.751Z,28.80
2019-04-16T23:13:54.266Z,27.10
2019-04-16T23:16:25.165Z,27.07
2019-04-16T23:18:56.155Z,29.47
2019-04-16T23:21:27.046Z,28.73
2019-04-16T23:23:57.966Z,26.87
2019-04-16T23:26:32.168Z,26.47
2019-04-16T23:29:01.506Z,30.73
2019-04-16T23:31:32.432Z,29.13
2019-04-16T23:34:06.036Z,28.40
2019-04-16T23:36:36.002Z,33.87
2019-04-16T23:39:08.027Z,29.40
2019-04-16T23:41:38.927Z,28.27
2019-04-16T23:44:28.510Z,25.83
2019-04-16T23:47:17.183Z,26.00
2019-04-16T23:49:55.542Z,28.30
2019-04-16T23:52:28.083Z,26.77
2019-04-16T23:55:06.445Z,25.77
2019-04-16T23:57:56.823Z,28.63
